Time;durP1;ratioP1;P1;durP2;ratioP2;P2;SDS_P1;SDS_P2;PMS_P1;PMS_P2;Temp;Humidity;BMP_temperature;BMP_pressure;BME280_temperature;BME280_humidity;BME280_pressure;Samples;Min_cycle;Max_cycle;Signal;HPM_P1;HPM_P2
2023/06/08 00:00:17;;;;;;;9.18;7.05;;;;;;;17.91;100.00;100825.19;700689;28;1027;-56
2023/06/08 00:00:41;;;;;;;8.10;6.95;;;;;;;17.90;100.00;100823.44;697024;28;1913;-56
2023/06/08 00:01:02;;;;;;;8.82;7.10;;;;;;;17.94;100.00;100823.31;698109;28;4665;-56
2023/06/08 00:01:25;;;;;;;7.72;6.93;;;;;;;17.94;100.00;100823.31;698605;28;1002;-57
2023/06/08 00:01:46;;;;;;;7.75;6.68;;;;;;;17.92;100.00;100824.31;696215;28;1520;-56
2023/06/08 00:02:06;;;;;;;8.17;7.17;;;;;;;17.91;100.00;100823.41;699977;28;1276;-54
2023/06/08 00:02:28;;;;;;;8.50;6.88;;;;;;;17.90;100.00;100819.00;699819;28;1160;-54
2023/06/08 00:02:49;;;;;;;8.23;6.50;;;;;;;17.91;100.00;100826.06;698246;28;1656;-56
2023/06/08 00:03:12;;;;;;;8.60;6.90;;;;;;;17.92;100.00;100821.66;701662;28;871;-56
2023/06/08 00:03:32;;;;;;;9.02;7.15;;;;;;;18.02;100.00;100818.63;701032;28;1038;-56
2023/06/08 00:03:53;;;;;;;9.32;7.20;;;;;;;18.00;100.00;100820.47;695707;28;4578;-56
2023/06/08 00:04:13;;;;;;;8.47;6.90;;;;;;;17.92;100.00;100819.88;698658;28;1432;-56
2023/06/08 00:04:34;;;;;;;8.57;7.10;;;;;;;17.92;100.00;100817.22;697241;28;1032;-57
2023/06/08 00:04:54;;;;;;;8.07;7.20;;;;;;;17.92;100.00;100821.66;694442;28;1439;-56
2023/06/08 00:05:16;;;;;;;9.13;7.05;;;;;;;17.90;100.00;100819.00;695743;28;1034;-54
2023/06/08 00:05:43;;;;;;;8.38;7.00;;;;;;;17.86;100.00;100818.25;698386;28;1219;-56
2023/06/08 00:06:04;;;;;;;9.43;7.18;;;;;;;17.84;100.00;100824.50;700323;28;979;-55
2023/06/08 00:06:26;;;;;;;9.03;7.53;;;;;;;17.84;100.00;100813.94;702741;28;935;-57
2023/06/08 00:06:49;;;;;;;8.10;7.22;;;;;;;17.82;100.00;100811.34;700884;28;4732;-56
2023/06/08 00:07:10;;;;;;;8.45;7.28;;;;;;;17.80;100.00;100812.28;703929;28;1033;-56
2023/06/08 00:07:34;;;;;;;8.82;7.28;;;;;;;17.76;100.00;100811.53;702570;28;983;-56
2023/06/08 00:07:56;;;;;;;8.05;6.88;;;;;;;17.79;100.00;100815.84;700029;28;1107;-56
2023/06/08 00:08:16;;;;;;;9.05;7.10;;;;;;;17.78;100.00;100808.84;700916;28;866;-56
2023/06/08 00:08:37;;;;;;;8.53;6.90;;;;;;;17.73;100.00;100811.63;700975;28;1034;-55
2023/06/08 00:08:58;;;;;;;8.77;7.30;;;;;;;17.72;100.00;100807.25;701128;28;1389;-57
2023/06/08 00:09:18;;;;;;;8.10;7.18;;;;;;;17.69;100.00;100810.88;698618;28;733;-55
2023/06/08 00:09:39;;;;;;;8.53;7.00;;;;;;;17.66;100.00;100808.31;697314;28;1620;-56
2023/06/08 00:09:59;;;;;;;9.50;7.20;;;;;;;17.65;100.00;100814.53;697943;28;4639;-56
2023/06/08 00:10:19;;;;;;;8.13;6.93;;;;;;;17.64;100.00;100809.28;700980;28;1003;-57
2023/06/08 00:10:44;;;;;;;9.60;7.35;;;;;;;17.63;100.00;100811.06;699482;28;1460;-57
2023/06/08 00:11:04;;;;;;;8.77;7.10;;;;;;;17.66;100.00;100813.59;700976;28;761;-56
2023/06/08 00:11:25;;;;;;;8.30;6.93;;;;;;;17.65;100.00;100809.25;701708;28;828;-56
2023/06/08 00:11:46;;;;;;;8.05;7.25;;;;;;;17.64;100.00;100810.16;699928;28;1538;-55
2023/06/08 00:12:07;;;;;;;9.00;7.05;;;;;;;17.63;100.00;100805.78;700273;28;1233;-57
2023/06/08 00:12:28;;;;;;;9.50;7.35;;;;;;;17.57;100.00;100803.34;701389;28;977;-56
2023/06/08 00:12:48;;;;;;;9.30;7.43;;;;;;;17.61;100.00;100804.97;699482;28;4383;-55
2023/06/08 00:13:09;;;;;;;9.20;7.40;;;;;;;17.70;100.00;100796.72;701201;28;868;-55
2023/06/08 00:13:30;;;;;;;9.27;7.55;;;;;;;17.67;100.00;100812.69;701346;28;864;-56
2023/06/08 00:13:50;;;;;;;8.70;7.60;;;;;;;17.66;100.00;100805.66;700340;28;1533;-56
2023/06/08 00:14:11;;;;;;;8.95;7.35;;;;;;;17.66;100.00;100803.03;700328;28;1424;-56
2023/06/08 00:14:32;;;;;;;9.80;7.03;;;;;;;17.64;100.00;100804.88;700269;28;900;-56
2023/06/08 00:14:52;;;;;;;9.25;7.35;;;;;;;17.63;100.00;100811.06;699015;28;1556;-57
2023/06/08 00:15:13;;;;;;;9.00;7.47;;;;;;;17.62;100.00;100808.47;701442;28;915;-57
2023/06/08 00:15:34;;;;;;;11.18;7.78;;;;;;;17.63;100.00;100800.47;701439;28;841;-56
2023/06/08 00:15:54;;;;;;;10.40;7.37;;;;;;;17.60;100.00;100805.88;698758;28;4547;-56
2023/06/08 00:16:15;;;;;;;8.85;7.15;;;;;;;17.58;100.00;100804.19;700447;28;3409;-56
2023/06/08 00:16:37;;;;;;;8.93;7.10;;;;;;;17.62;100.00;100798.75;701411;28;951;-55
2023/06/08 00:16:57;;;;;;;9.52;7.10;;;;;;;17.62;100.00;100800.53;700193;28;1493;-56
2023/06/08 00:17:17;;;;;;;8.73;6.82;;;;;;;17.60;100.00;100800.59;701377;28;1475;-56
2023/06/08 00:17:38;;;;;;;9.27;6.93;;;;;;;17.60;100.00;100800.59;700089;28;951;-56
2023/06/08 00:18:00;;;;;;;9.52;7.05;;;;;;;17.66;100.00;100810.09;701799;28;939;-56
2023/06/08 00:18:20;;;;;;;10.90;7.13;;;;;;;17.67;100.00;100795.97;701326;28;943;-55
2023/06/08 00:18:41;;;;;;;8.68;7.40;;;;;;;17.64;100.00;100802.22;699170;28;4442;-56
2023/06/08 00:19:02;;;;;;;8.25;7.38;;;;;;;17.56;100.00;100809.53;701167;28;1412;-55
2023/06/08 00:19:23;;;;;;;8.68;7.53;;;;;;;17.55;100.00;100805.16;700408;28;975;-57
2023/06/08 00:19:44;;;;;;;9.07;7.20;;;;;;;17.55;100.00;100801.66;699199;28;1427;-56
2023/06/08 00:20:08;;;;;;;9.25;7.32;;;;;;;17.55;100.00;100804.28;701677;28;930;-55
2023/06/08 00:20:29;;;;;;;8.25;7.45;;;;;;;17.52;100.00;100800.81;700950;28;955;-57
2023/06/08 00:20:51;;;;;;;9.15;7.32;;;;;;;17.52;100.00;100799.97;699960;28;1526;-56
2023/06/08 00:21:12;;;;;;;9.02;7.57;;;;;;;17.56;100.00;100800.75;701593;28;1037;-55
2023/06/08 00:21:33;;;;;;;9.38;7.65;;;;;;;17.58;100.00;100805.03;701350;28;1424;-56
2023/06/08 00:21:54;;;;;;;9.30;7.75;;;;;;;17.60;100.00;100805.00;699570;28;4572;-57
2023/06/08 00:22:14;;;;;;;9.15;7.32;;;;;;;17.58;100.00;100798.91;701166;28;1404;-56
2023/06/08 00:22:36;;;;;;;8.53;7.67;;;;;;;17.63;100.00;100800.47;700856;28;975;-56
2023/06/08 00:22:56;;;;;;;9.23;7.70;;;;;;;17.61;100.00;100798.81;699031;28;1553;-55
2023/06/08 00:23:17;;;;;;;8.80;7.57;;;;;;;17.57;100.00;100798.06;700194;28;907;-56
2023/06/08 00:23:37;;;;;;;7.95;6.85;;;;;;;17.56;100.00;100801.59;701675;28;875;-57
2023/06/08 00:23:58;;;;;;;8.30;7.18;;;;;;;17.53;100.00;100799.06;699574;28;1264;-55
2023/06/08 00:24:19;;;;;;;9.37;7.43;;;;;;;17.56;100.00;100798.97;701509;28;887;-58
2023/06/08 00:24:40;;;;;;;9.25;6.88;;;;;;;17.50;100.00;100799.13;699361;28;1062;-57
2023/06/08 00:25:00;;;;;;;9.70;7.15;;;;;;;17.49;100.00;100803.56;701072;28;4503;-55
2023/06/08 00:25:20;;;;;;;9.63;7.87;;;;;;;17.58;100.00;100797.13;701286;28;1487;-57
2023/06/08 00:25:41;;;;;;;8.57;7.68;;;;;;;17.65;100.00;100801.31;699858;28;1751;-56
2023/06/08 00:26:03;;;;;;;9.13;7.53;;;;;;;17.64;100.00;100796.94;704015;28;796;-55
2023/06/08 00:26:23;;;;;;;8.55;7.55;;;;;;;17.68;100.00;100798.56;703330;28;1113;-57
2023/06/08 00:26:45;;;;;;;8.35;7.45;;;;;;;17.64;100.00;100796.94;698592;28;1513;-57
2023/06/08 00:27:06;;;;;;;8.80;7.50;;;;;;;17.60;100.00;100797.06;698452;28;1484;-57
2023/06/08 00:27:27;;;;;;;9.20;7.25;;;;;;;17.56;100.00;100796.31;698089;28;1420;-56
2023/06/08 00:27:50;;;;;;;9.20;7.20;;;;;;;17.59;100.00;100804.13;696039;28;4707;-57
2023/06/08 00:28:10;;;;;;;8.90;7.43;;;;;;;17.60;100.00;100800.59;698391;28;1478;-57
2023/06/08 00:28:30;;;;;;;8.57;7.13;;;;;;;17.58;100.00;100793.63;698671;28;820;-57
2023/06/08 00:28:51;;;;;;;8.45;7.10;;;;;;;17.55;100.00;100799.88;694490;28;1481;-57
2023/06/08 00:29:11;;;;;;;9.43;7.57;;;;;;;17.52;100.00;100798.19;695590;28;1227;-56
2023/06/08 00:29:34;;;;;;;9.27;7.65;;;;;;;17.55;100.00;100802.50;695833;28;1007;-57
2023/06/08 00:29:57;;;;;;;8.27;7.20;;;;;;;17.53;100.00;100794.63;692254;28;1684;-57
2023/06/08 00:30:17;;;;;;;8.77;7.10;;;;;;;17.52;100.00;100797.31;695470;28;1496;-57
2023/06/08 00:30:38;;;;;;;10.07;7.63;;;;;;;17.51;100.00;100801.75;696758;28;812;-56
2023/06/08 00:30:58;;;;;;;10.55;7.70;;;;;;;17.55;100.00;100802.50;695524;28;4491;-56
2023/06/08 00:31:19;;;;;;;10.60;7.60;;;;;;;17.52;100.00;100798.19;698226;28;1200;-57
2023/06/08 00:31:40;;;;;;;9.93;7.68;;;;;;;17.49;100.00;100802.72;696756;28;1581;-58
2023/06/08 00:32:00;;;;;;;9.03;7.40;;;;;;;17.48;100.00;100803.63;695640;28;1453;-57
2023/06/08 00:32:21;;;;;;;8.82;7.30;;;;;;;17.46;100.00;100800.16;695752;28;833;-56
2023/06/08 00:32:42;;;;;;;9.35;7.75;;;;;;;17.48;100.00;100800.97;694841;28;1961;-56
2023/06/08 00:33:02;;;;;;;8.50;7.40;;;;;;;17.46;100.00;100794.84;698047;28;1046;-55
2023/06/08 00:33:23;;;;;;;9.25;7.38;;;;;;;17.48;100.00;100803.63;695618;28;1465;-55
2023/06/08 00:33:44;;;;;;;8.83;7.30;;;;;;;17.50;100.00;100804.41;695073;28;4731;-56
2023/06/08 00:34:05;;;;;;;10.40;7.95;;;;;;;17.48;100.00;100798.34;701201;28;871;-56
2023/06/08 00:34:27;;;;;;;10.55;7.97;;;;;;;17.49;100.00;100795.63;695619;28;1356;-56
2023/06/08 00:34:48;;;;;;;8.93;7.68;;;;;;;17.48;100.00;100796.53;692297;28;2002;-56
2023/06/08 00:35:10;;;;;;;8.63;7.65;;;;;;;17.48;100.00;100795.69;691373;28;1226;-55
2023/06/08 00:35:31;;;;;;;10.85;8.57;;;;;;;17.49;100.00;100800.94;690004;28;1449;-56
2023/06/08 00:35:51;;;;;;;9.05;7.80;;;;;;;17.50;100.00;100804.41;688970;28;1489;-57
2023/06/08 00:36:14;;;;;;;10.10;7.27;;;;;;;17.51;100.00;100800.88;691522;28;1280;-57
2023/06/08 00:36:36;;;;;;;10.40;7.43;;;;;;;17.49;100.00;100800.94;696340;28;1105;-57
2023/06/08 00:36:57;;;;;;;9.02;7.30;;;;;;;17.53;100.00;100799.06;694797;28;4376;-56
2023/06/08 00:37:17;;;;;;;9.63;7.60;;;;;;;17.50;100.00;100793.84;698765;28;982;-56
2023/06/08 00:37:37;;;;;;;9.37;7.50;;;;;;;17.46;100.00;100794.84;698909;28;2060;-55
2023/06/08 00:37:58;;;;;;;9.82;7.80;;;;;;;17.44;100.00;100797.56;698458;28;1571;-57
2023/06/08 00:38:18;;;;;;;9.53;7.57;;;;;;;17.42;100.00;100795.88;699039;28;1364;-56
2023/06/08 00:38:39;;;;;;;8.65;7.75;;;;;;;17.40;100.00;100797.72;695007;28;1721;-57
2023/06/08 00:38:59;;;;;;;8.90;7.53;;;;;;;17.41;100.00;100805.59;699003;28;5810;-57
2023/06/08 00:39:20;;;;;;;9.80;7.80;;;;;;;17.38;100.00;100800.41;697369;28;1312;-57
2023/06/08 00:39:41;;;;;;;9.30;7.90;;;;;;;17.35;100.00;100795.22;699214;28;4693;-55
2023/06/08 00:40:04;;;;;;;10.02;7.78;;;;;;;17.33;100.00;100797.91;698577;28;1329;-57
2023/06/08 00:40:24;;;;;;;8.93;7.68;;;;;;;17.36;100.00;100800.44;699468;28;1420;-56
2023/06/08 00:40:45;;;;;;;9.93;8.10;;;;;;;17.39;100.00;100795.97;697014;28;1574;-57
2023/06/08 00:41:06;;;;;;;8.80;7.47;;;;;;;17.38;100.00;100795.13;698621;28;903;-56
2023/06/08 00:41:29;;;;;;;9.35;7.60;;;;;;;17.36;100.00;100800.44;697743;28;1238;-56
2023/06/08 00:41:50;;;;;;;9.63;7.45;;;;;;;17.35;100.00;100800.50;697681;28;1439;-57
2023/06/08 00:42:10;;;;;;;9.47;7.63;;;;;;;17.30;100.00;100795.34;700295;28;831;-57
2023/06/08 00:42:31;;;;;;;9.43;8.20;;;;;;;17.31;100.00;100798.88;701269;28;899;-57
2023/06/08 00:42:52;;;;;;;9.75;8.05;;;;;;;17.29;100.00;100801.56;695918;28;4416;-57
2023/06/08 00:43:12;;;;;;;9.47;7.60;;;;;;;17.29;100.00;100796.28;699063;28;1019;-56
2023/06/08 00:43:34;;;;;;;9.43;7.50;;;;;;;17.24;100.00;100792.00;700588;28;1551;-56
2023/06/08 00:43:55;;;;;;;11.18;8.15;;;;;;;17.24;100.00;100792.91;698990;28;1810;-55
2023/06/08 00:44:16;;;;;;;11.90;8.00;;;;;;;17.23;100.00;100792.94;698572;28;1388;-56
2023/06/08 00:44:36;;;;;;;11.17;8.13;;;;;;;17.28;100.00;100797.19;699004;28;971;-56
2023/06/08 00:44:56;;;;;;;10.30;7.97;;;;;;;17.26;100.00;100795.50;699942;28;1485;-57
2023/06/08 00:45:17;;;;;;;11.83;7.90;;;;;;;17.26;100.00;100798.97;701317;28;1615;-55
2023/06/08 00:45:39;;;;;;;11.23;7.95;;;;;;;17.24;100.00;100792.00;700262;28;1389;-56
2023/06/08 00:46:02;;;;;;;9.63;8.10;;;;;;;17.21;100.00;100790.34;700197;28;4355;-57
2023/06/08 00:46:24;;;;;;;9.27;7.88;;;;;;;17.25;100.00;100799.91;701276;28;873;-56
2023/06/08 00:46:45;;;;;;;10.20;8.07;;;;;;;17.23;100.00;100796.44;699307;28;1498;-56
2023/06/08 00:47:05;;;;;;;10.25;8.18;;;;;;;17.21;100.00;100794.75;701653;28;765;-57
2023/06/08 00:47:26;;;;;;;10.77;8.33;;;;;;;17.19;100.00;100794.81;701526;28;1615;-56
2023/06/08 00:47:47;;;;;;;10.85;8.23;;;;;;;17.18;100.00;100795.72;698939;28;1949;-56
2023/06/08 00:48:08;;;;;;;9.82;7.88;;;;;;;17.16;100.00;100792.25;700513;28;769;-57
2023/06/08 00:48:29;;;;;;;11.02;8.40;;;;;;;17.16;100.00;100794.91;697954;28;1177;-57
2023/06/08 00:48:52;;;;;;;10.55;8.57;;;;;;;17.16;100.00;100794.91;696401;28;4424;-57
2023/06/08 00:49:17;;;;;;;10.93;8.15;;;;;;;17.15;100.00;100795.81;698219;28;816;-56
2023/06/08 00:49:38;;;;;;;10.52;8.25;;;;;;;17.15;100.00;100793.16;695020;28;2131;-57
2023/06/08 00:50:00;;;;;;;9.23;8.20;;;;;;;17.15;100.00;100799.31;692428;28;1031;-55
2023/06/08 00:50:23;;;;;;;10.50;8.45;;;;;;;17.14;100.00;100792.31;695945;28;1468;-55
2023/06/08 00:50:46;;;;;;;10.38;8.90;;;;;;;17.14;100.00;100797.59;694353;28;1749;-57
2023/06/08 00:51:06;;;;;;;10.20;8.85;;;;;;;17.14;100.00;100796.72;695131;28;1241;-57
2023/06/08 00:51:36;;;;;;;9.70;8.63;;;;;;;17.21;100.00;100795.63;696912;28;1343;-57
2023/06/08 00:51:56;;;;;;;9.73;7.95;;;;;;;17.19;100.00;100794.81;693067;28;4408;-57
2023/06/08 00:52:20;;;;;;;10.20;7.97;;;;;;;17.14;100.00;100797.59;695682;28;839;-56
2023/06/08 00:52:41;;;;;;;9.98;8.23;;;;;;;17.16;100.00;100792.25;690608;28;1988;-56
2023/06/08 00:53:02;;;;;;;8.98;8.00;;;;;;;17.17;100.00;100797.50;691894;28;1278;-55
2023/06/08 00:53:24;;;;;;;10.50;9.17;;;;;;;17.17;100.00;100791.38;692882;28;1009;-57
2023/06/08 00:53:46;;;;;;;9.75;8.60;;;;;;;17.17;100.00;100797.50;691300;28;1505;-57
2023/06/08 00:54:14;;;;;;;10.45;8.45;;;;;;;17.17;100.00;100796.66;695106;28;848;-57
2023/06/08 00:54:36;;;;;;;9.00;7.72;;;;;;;17.15;100.00;100790.53;695739;28;1285;-57
2023/06/08 00:54:58;;;;;;;11.82;8.15;;;;;;;17.13;100.00;100793.22;695388;28;4559;-57
2023/06/08 00:55:19;;;;;;;10.65;8.60;;;;;;;17.13;100.00;100790.56;697833;28;1221;-57
2023/06/08 00:55:43;;;;;;;9.77;8.50;;;;;;;17.20;100.00;100796.53;694057;28;1810;-55
2023/06/08 00:56:05;;;;;;;10.68;8.70;;;;;;;17.27;100.00;100800.72;693240;28;1408;-56
2023/06/08 00:56:31;;;;;;;10.35;8.27;;;;;;;17.26;100.00;100795.50;692550;28;1473;-57
2023/06/08 00:56:52;;;;;;;10.38;8.10;;;;;;;17.25;100.00;100789.34;690806;28;1536;-58
2023/06/08 00:57:15;;;;;;;10.82;8.45;;;;;;;17.22;100.00;100792.06;692980;28;1010;-55
2023/06/08 00:57:37;;;;;;;9.63;8.00;;;;;;;17.21;100.00;100790.34;695058;28;1019;-57
2023/06/08 00:57:58;;;;;;;9.75;8.43;;;;;;;17.22;100.00;100789.41;693154;28;4564;-56
2023/06/08 00:58:19;;;;;;;10.38;8.70;;;;;;;17.22;100.00;100792.06;697244;28;788;-56
2023/06/08 00:58:45;;;;;;;9.52;8.45;;;;;;;17.19;100.00;100794.81;697832;28;1525;-56
2023/06/08 00:59:07;;;;;;;11.20;8.57;;;;;;;17.17;100.00;100786.94;698520;28;900;-56
2023/06/08 00:59:30;;;;;;;9.77;8.18;;;;;;;17.15;100.00;100788.75;698304;28;1277;-56
2023/06/08 00:59:52;;;;;;;10.10;8.50;;;;;;;17.14;100.00;100796.72;695757;28;1440;-57
2023/06/08 01:00:13;;;;;;;9.52;8.25;;;;;;;17.19;100.00;100785.09;698281;28;1051;-56
2023/06/08 01:00:34;;;;;;;8.93;7.70;;;;;;;17.17;100.00;100786.06;698047;28;979;-56
2023/06/08 01:00:59;;;;;;;9.18;7.90;;;;;;;17.17;100.00;100784.28;693924;28;4557;-57
2023/06/08 01:01:19;;;;;;;9.65;8.50;;;;;;;17.16;100.00;100786.97;696496;28;1209;-56
2023/06/08 01:01:40;;;;;;;9.70;8.10;;;;;;;17.14;100.00;100787.03;696251;28;1001;-55
2023/06/08 01:02:04;;;;;;;9.80;8.07;;;;;;;17.12;100.00;100790.63;697952;28;1038;-57
2023/06/08 01:02:25;;;;;;;9.52;8.27;;;;;;;17.10;100.00;100789.78;698305;28;1208;-57
2023/06/08 01:02:47;;;;;;;9.70;8.20;;;;;;;17.11;100.00;100791.53;695358;28;1473;-56
2023/06/08 01:03:09;;;;;;;10.68;8.43;;;;;;;17.10;100.00;100789.78;698715;28;822;-55
2023/06/08 01:03:38;;;;;;;10.55;8.48;;;;;;;17.10;100.00;100780.09;698464;28;1456;-57
2023/06/08 01:04:05;;;;;;;9.50;8.48;;;;;;;17.11;100.00;100786.25;697061;28;4444;-56
2023/06/08 01:04:26;;;;;;;12.23;9.25;;;;;;;17.12;100.00;100785.34;698341;28;1444;-57
2023/06/08 01:04:50;;;;;;;10.77;8.87;;;;;;;17.14;100.00;100780.88;693932;28;1639;-57
2023/06/08 01:05:12;;;;;;;9.88;8.43;;;;;;;17.18;100.00;100793.94;695827;28;816;-56
2023/06/08 01:05:34;;;;;;;9.70;8.70;;;;;;;17.25;100.00;100788.47;695565;28;1509;-56
2023/06/08 01:05:54;;;;;;;9.95;8.18;;;;;;;17.22;100.00;100783.28;693534;28;1479;-56
2023/06/08 01:06:16;;;;;;;10.20;8.27;;;;;;;17.19;100.00;100789.53;692684;28;916;-56
2023/06/08 01:06:39;;;;;;;10.90;8.50;;;;;;;17.16;100.00;100786.97;694020;28;851;-57
2023/06/08 01:07:14;;;;;;;10.13;8.40;;;;;;;17.12;100.00;100785.34;692181;28;4310;-56
2023/06/08 01:07:53;;;;;;;11.05;9.15;;;;;;;17.12;100.00;100785.34;692920;28;1324;-57
2023/06/08 01:08:31;;;;;;;10.05;8.40;;;;;;;17.15;100.00;100787.88;696134;28;1305;-57
2023/06/08 01:09:14;;;;;;;9.52;8.48;;;;;;;17.09;100.00;100788.09;697920;28;1583;-57
2023/06/08 01:10:01;;;;;;;9.52;8.48;;;;;;;17.06;100.00;100794.31;701799;28;934;-56
2023/06/08 01:10:32;;;;;;;10.10;8.60;;;;;;;17.05;100.00;100794.38;702387;28;6096;-57
2023/06/08 01:11:11;;;;;;;10.45;8.52;;;;;;;17.02;100.00;100790.88;699520;28;1278;-56
2023/06/08 01:12:06;;;;;;;9.82;8.45;;;;;;;17.01;100.00;100791.78;701431;28;906;-56
2023/06/08 01:12:50;;;;;;;10.48;8.25;;;;;;;16.98;100.00;100791.88;688881;28;3404;-56
2023/06/08 01:13:39;;;;;;;11.13;8.20;;;;;;;16.90;100.00;100783.31;688610;28;4966;-56
2023/06/08 01:14:00;;;;;;;10.88;8.63;;;;;;;16.90;100.00;100787.75;686876;28;1206;-57
2023/06/08 01:14:44;;;;;;;10.55;8.60;;;;;;;16.90;100.00;100791.25;694307;28;1442;-57
2023/06/08 01:15:21;;;;;;;9.60;8.60;;;;;;;16.95;100.00;100784.06;699583;28;837;-56
2023/06/08 01:15:46;;;;;;;11.20;8.95;;;;;;;17.00;100.00;100790.09;695976;28;5034;-56
2023/06/08 01:16:10;;;;;;;10.18;8.23;;;;;;;16.98;100.00;100789.25;695145;28;1259;-56
2023/06/08 01:16:37;;;;;;;9.88;8.75;;;;;;;16.98;100.00;100796.31;695692;28;1068;-57
2023/06/08 01:17:02;;;;;;;10.30;8.70;;;;;;;16.95;100.00;100789.34;694031;28;1100;-57
2023/06/08 01:17:29;;;;;;;9.80;8.60;;;;;;;16.93;100.00;100788.50;695439;28;1380;-56
2023/06/08 01:17:57;;;;;;;10.25;8.55;;;;;;;16.90;100.00;100788.59;694379;28;1591;-56
2023/06/08 01:18:22;;;;;;;9.90;8.80;;;;;;;16.95;100.00;100786.72;698438;28;1415;-56
2023/06/08 01:18:44;;;;;;;9.13;8.13;;;;;;;16.95;100.00;100788.50;694023;28;4908;-56
2023/06/08 01:19:10;;;;;;;10.38;9.00;;;;;;;16.92;100.00;100780.63;694314;28;1495;-56
2023/06/08 01:19:56;;;;;;;10.68;8.80;;;;;;;16.89;100.00;100781.63;695337;28;1612;-57
2023/06/08 01:20:46;;;;;;;9.77;8.48;;;;;;;16.89;100.00;100786.91;695383;28;1222;-57
2023/06/08 01:21:42;;;;;;;10.07;8.70;;;;;;;16.88;100.00;100779.84;684836;28;1171;-56
2023/06/08 01:22:13;;;;;;;8.93;7.90;;;;;;;16.85;100.00;100782.59;689670;28;4656;-56
2023/06/08 01:23:03;;;;;;;9.98;8.32;;;;;;;16.84;100.00;100783.47;701608;28;915;-59
2023/06/08 01:23:26;;;;;;;10.23;8.02;;;;;;;16.82;100.00;100788.81;703813;28;896;-56
2023/06/08 01:24:36;;;;;;;11.60;8.13;;;;;;;16.79;100.00;100788.88;702403;28;1491;-56
2023/06/08 01:24:59;;;;;;;9.77;8.68;;;;;;;16.74;100.00;100793.44;688180;28;4352;-56
2023/06/08 01:25:23;;;;;;;10.50;8.52;;;;;;;16.76;100.00;100790.75;695124;28;1363;-55
2023/06/08 01:25:45;;;;;;;9.73;8.70;;;;;;;16.73;100.00;100789.06;697170;28;1549;-57
2023/06/08 01:26:10;;;;;;;10.30;9.02;;;;;;;16.73;100.00;100791.72;695692;28;975;-56
2023/06/08 01:26:31;;;;;;;9.60;8.52;;;;;;;16.73;100.00;100788.22;696267;28;963;-57
2023/06/08 01:26:56;;;;;;;10.45;8.45;;;;;;;16.72;100.00;100789.13;694693;28;1424;-56
2023/06/08 01:27:19;;;;;;;10.80;8.25;;;;;;;16.72;100.00;100794.41;696859;28;2282;-56
2023/06/08 01:27:40;;;;;;;10.60;8.50;;;;;;;16.71;100.00;100793.50;696255;28;1981;-55
2023/06/08 01:28:12;;;;;;;10.20;8.68;;;;;;;16.72;100.00;100789.97;691885;28;4781;-57
2023/06/08 01:28:34;;;;;;;10.10;8.45;;;;;;;16.71;100.00;100793.50;690714;28;1259;-56
2023/06/08 01:28:56;;;;;;;11.05;8.52;;;;;;;16.69;100.00;100793.56;687909;28;1646;-56
2023/06/08 01:29:25;;;;;;;10.88;8.57;;;;;;;16.70;100.00;100794.44;690297;28;864;-56
2023/06/08 01:29:47;;;;;;;11.82;8.55;;;;;;;16.69;100.00;100790.06;690607;28;1475;-56
2023/06/08 01:30:09;;;;;;;11.25;8.80;;;;;;;16.68;100.00;100789.22;692337;28;1416;-56
2023/06/08 01:30:30;;;;;;;10.57;8.85;;;;;;;16.72;100.00;100789.97;693996;28;1278;-56
2023/06/08 01:30:51;;;;;;;10.63;8.73;;;;;;;16.69;100.00;100796.19;694940;28;4640;-56
2023/06/08 01:31:12;;;;;;;10.70;9.02;;;;;;;16.68;100.00;100794.50;694756;28;1279;-56
2023/06/08 01:31:32;;;;;;;11.20;9.18;;;;;;;16.67;100.00;100798.03;694668;28;762;-56
2023/06/08 01:31:54;;;;;;;11.50;9.30;;;;;;;16.66;100.00;100787.50;694088;28;1731;-56
2023/06/08 01:32:15;;;;;;;10.98;9.13;;;;;;;16.64;100.00;100795.47;695309;28;924;-57
2023/06/08 01:32:37;;;;;;;10.63;8.15;;;;;;;16.71;100.00;100798.78;696360;28;1132;-54
2023/06/08 01:32:57;;;;;;;12.40;9.60;;;;;;;16.78;100.00;100795.09;691860;28;1516;-56
2023/06/08 01:33:20;;;;;;;11.32;9.40;;;;;;;16.75;100.00;100789.88;693186;28;916;-55
2023/06/08 01:33:41;;;;;;;10.48;8.27;;;;;;;16.78;100.00;100792.44;691320;28;4347;-55
2023/06/08 01:34:03;;;;;;;10.27;7.97;;;;;;;16.76;100.00;100790.75;691077;28;1957;-56
2023/06/08 01:34:24;;;;;;;11.00;8.30;;;;;;;16.75;100.00;100794.28;694279;28;908;-55
2023/06/08 01:34:46;;;;;;;9.80;8.15;;;;;;;16.72;100.00;100795.25;694488;28;1654;-55
2023/06/08 01:35:06;;;;;;;11.32;8.90;;;;;;;16.70;100.00;100797.06;696206;28;1297;-56
2023/06/08 01:35:27;;;;;;;11.00;8.57;;;;;;;16.68;100.00;100794.50;692896;28;873;-55
2023/06/08 01:36:11;;;;;;;10.90;8.70;;;;;;;16.65;100.00;100794.53;692560;28;1725;-57
2023/06/08 01:36:54;;;;;;;10.35;9.05;;;;;;;16.67;100.00;100798.03;693781;28;1079;-57
2023/06/08 01:37:26;;;;;;;10.35;8.68;;;;;;;16.68;100.00;100798.88;698890;28;4734;-56
2023/06/08 01:37:55;;;;;;;10.85;8.95;;;;;;;16.61;100.00;100786.78;696492;28;1923;-56
2023/06/08 01:38:30;;;;;;;11.60;9.07;;;;;;;16.58;100.00;100787.72;698288;28;1207;-57
2023/06/08 01:39:00;;;;;;;9.95;8.88;;;;;;;16.57;100.00;100791.25;697474;28;5186;-57
2023/06/08 01:39:39;;;;;;;12.05;9.50;;;;;;;16.56;100.00;100791.31;698653;28;1280;-56
2023/06/08 01:40:09;;;;;;;10.43;9.32;;;;;;;16.56;100.00;100784.28;698263;28;4354;-55
2023/06/08 01:40:36;;;;;;;10.35;9.25;;;;;;;16.57;100.00;100790.41;700864;28;1361;-56
2023/06/08 01:41:03;;;;;;;10.57;8.93;;;;;;;16.60;100.00;100788.56;700103;28;1659;-56
2023/06/08 01:41:27;;;;;;;11.45;8.88;;;;;;;16.65;100.00;100798.97;701261;28;1034;-57
2023/06/08 01:41:53;;;;;;;11.00;8.80;;;;;;;16.62;100.00;100792.00;695822;28;2175;-56
2023/06/08 01:42:19;;;;;;;9.55;8.55;;;;;;;16.62;100.00;100792.00;697910;28;915;-56
2023/06/08 01:42:44;;;;;;;11.73;9.27;;;;;;;16.60;100.00;100788.56;697613;28;1580;-56
2023/06/08 01:43:09;;;;;;;11.18;8.88;;;;;;;16.67;100.00;100798.03;701456;28;4742;-55
2023/06/08 01:43:33;;;;;;;11.20;8.88;;;;;;;16.68;100.00;100791.84;701571;28;1372;-57
2023/06/08 01:43:57;;;;;;;11.10;9.02;;;;;;;16.66;100.00;100791.00;696089;28;1732;-57
2023/06/08 01:44:21;;;;;;;11.15;9.27;;;;;;;16.64;100.00;100787.56;697147;28;891;-56
2023/06/08 01:44:45;;;;;;;10.85;9.07;;;;;;;16.63;100.00;100791.09;699970;28;1588;-55
2023/06/08 01:45:11;;;;;;;12.55;9.20;;;;;;;16.59;100.00;100791.25;698252;28;1900;-56
2023/06/08 01:45:36;;;;;;;11.32;8.48;;;;;;;16.56;100.00;100794.81;698065;28;813;-56
2023/06/08 01:46:01;;;;;;;11.88;8.82;;;;;;;16.56;100.00;100791.31;698326;28;5394;-57
2023/06/08 01:46:22;;;;;;;11.77;9.23;;;;;;;16.60;100.00;100796.47;701744;28;1436;-56
2023/06/08 01:46:51;;;;;;;10.40;9.05;;;;;;;16.55;100.00;100798.38;695816;28;1947;-55
2023/06/08 01:47:15;;;;;;;11.30;9.38;;;;;;;16.54;100.00;100806.31;697808;28;923;-55
2023/06/08 01:47:42;;;;;;;10.32;8.75;;;;;;;16.54;100.00;100796.63;698714;28;870;-57
2023/06/08 01:48:06;;;;;;;9.43;8.43;;;;;;;16.49;100.00;100798.50;697979;28;896;-57
2023/06/08 01:48:28;;;;;;;10.57;8.88;;;;;;;16.49;100.00;100798.50;698864;28;1136;-55
2023/06/08 01:48:51;;;;;;;10.70;9.20;;;;;;;16.49;100.00;100795.88;697916;28;4670;-56
2023/06/08 01:49:12;;;;;;;10.75;8.68;;;;;;;16.48;100.00;100797.66;701214;28;1341;-57
2023/06/08 01:49:34;;;;;;;11.25;9.07;;;;;;;16.49;100.00;100799.41;701890;28;1134;-56
2023/06/08 01:49:55;;;;;;;11.40;9.10;;;;;;;16.48;100.00;100796.81;695673;28;1444;-57
2023/06/08 01:50:17;;;;;;;11.05;9.25;;;;;;;16.48;100.00;100799.44;698178;28;2045;-56
2023/06/08 01:50:39;;;;;;;10.23;9.23;;;;;;;16.48;100.00;100799.44;696188;28;883;-55
2023/06/08 01:50:59;;;;;;;10.85;9.30;;;;;;;16.48;100.00;100804.72;694742;28;1562;-57
2023/06/08 01:51:20;;;;;;;12.23;9.52;;;;;;;16.54;100.00;100786.06;698962;28;836;-57
2023/06/08 01:51:41;;;;;;;10.40;8.95;;;;;;;16.53;100.00;100797.53;698156;28;4748;-57
2023/06/08 01:52:02;;;;;;;9.98;8.98;;;;;;;16.59;100.00;100793.88;701107;28;859;-56